Greenville, MS

12:20 AM CST on March 06, 2015 (GMT -0600)
Monticello Municipal-Ellis | Change Station
CLOSE
Current Station
Airport
Location: Monticello,
Elevation: 269 ft
Nearby Weather Stations

Elev 269 ft 33.64 °N, 91.76 °W | Updated 27 minutes ago

Clear
Clear
23 °F
Feels Like 23 °F
N
0
Wind Variable Wind from North

Today
High -- | Low -- °F
--% Chance of Precip.
Yesterday
High -- | Low -- °F
Precip. -- in
6:26 AM 6:04 PM
Full, 100% visible
Pressure 30.60 in
Visibility -9999.0 miles
Clouds Clear
Dew Point 20 °F
Humidity 88%
Rainfall 0.00 in
Snow Depth Not available.
UV 0 out of 12
Pollen .20 out of 12
Air Quality Not available.
Flu Activity Not available.
METAR KLLQ 060553Z AUTO 00000KT CLR M05/M07 A3059 RMK AO2 SLP360 T10501067 10011 21050 400281050 51003 $

More Conditions Fewer Conditions

Pressure 30.60 in
Visibility -9999.0 miles
Clouds Clear
Dew Point 20 °F
Humidity 88%
Rainfall 0.00 in
Snow Depth Not available.
UV 0 out of 12
Pollen .20 out of 12
Air Quality Not available.
Flu Activity Not available.
METAR KLLQ 060553Z AUTO 00000KT CLR M05/M07 A3059 RMK AO2 SLP360 T10501067 10011 21050 400281050 51003 $

More Conditions Fewer Conditions

10-Day Weather Forecast

Almanac

Astronomy

Mar. 06, 2015 Rise Set
Actual Time
Civil Twilight
Nautical Twilight
Astronomical Twilight
Moon
Length of Visible Light
Length of Day
Tomorrow will be .
, % of the Moon is Illuminated

Today's Extremes

State Highs State Lows

Community

WunderPhotos

Upload Photos

1,803,195 photos uploaded!

WunderBlogs® & News

Nearby

Air Quality

  Air Quality AQ Index Pollutant
Not available.

Snow Depth

Station Depth Elevation

Earthquake Activity

City Distance Mag. Time & Date
Minimum magnitude displayed is 2.5.

Coastal Water Temperatures

Place Temperature

Nearby Weather Stations